createdAt,value
2022-08-19T00:01:55.569Z,42.90
2022-08-19T00:04:25.545Z,43.00
2022-08-19T00:06:54.073Z,43.00
2022-08-19T00:09:24.888Z,42.90
2022-08-19T00:11:53.197Z,42.80
2022-08-19T00:14:23.234Z,43.00
2022-08-19T00:16:55.490Z,42.90
2022-08-19T00:19:24.025Z,42.90
2022-08-19T00:21:52.223Z,42.90
2022-08-19T00:24:20.793Z,43.00
2022-08-19T00:26:48.854Z,43.00
2022-08-19T00:29:18.799Z,43.00
2022-08-19T00:31:46.902Z,43.00
2022-08-19T00:34:17.501Z,42.90
2022-08-19T00:36:45.689Z,43.10
2022-08-19T00:39:13.981Z,43.00
2022-08-19T00:41:42.237Z,43.10
2022-08-19T00:44:11.777Z,43.00
2022-08-19T00:46:41.248Z,43.20
2022-08-19T00:49:11.458Z,43.10
2022-08-19T00:51:41.039Z,43.20
2022-08-19T00:54:10.155Z,43.10
2022-08-19T00:56:38.371Z,43.10
2022-08-19T00:59:10.197Z,43.00
2022-08-19T01:02:01.088Z,43.10
2022-08-19T01:04:29.178Z,43.00
2022-08-19T01:06:58.709Z,43.10
2022-08-19T01:09:26.728Z,43.20
2022-08-19T01:11:54.827Z,43.20
2022-08-19T01:14:23.028Z,43.10
2022-08-19T01:16:51.053Z,43.20
2022-08-19T01:19:44.200Z,43.20
2022-08-19T01:22:17.105Z,43.20
2022-08-19T01:24:49.849Z,43.20
2022-08-19T01:27:18.265Z,43.30
2022-08-19T01:29:46.780Z,43.30
2022-08-19T01:32:32.208Z,43.20
2022-08-19T01:35:03.183Z,43.30
2022-08-19T01:37:31.785Z,43.20
2022-08-19T01:40:01.412Z,43.20
2022-08-19T01:42:30.069Z,43.20
2022-08-19T01:44:58.842Z,43.50
2022-08-19T01:47:26.856Z,43.30
2022-08-19T01:49:55.156Z,43.40
2022-08-19T01:52:23.145Z,43.30
2022-08-19T01:54:51.140Z,43.30
2022-08-19T01:57:20.558Z,43.40
2022-08-19T01:59:48.550Z,43.30
2022-08-19T02:02:16.517Z,43.30
2022-08-19T02:04:44.510Z,43.40
2022-08-19T02:07:12.495Z,43.30
2022-08-19T02:09:40.481Z,43.30
2022-08-19T02:12:09.681Z,43.40
2022-08-19T02:14:39.189Z,43.30
2022-08-19T02:17:07.167Z,43.20
2022-08-19T02:19:35.007Z,43.30
2022-08-19T02:22:03.380Z,43.30
2022-08-19T02:24:31.295Z,43.80
2022-08-19T02:26:59.746Z,43.30
2022-08-19T02:29:27.753Z,43.30
2022-08-19T02:31:57.252Z,43.30
2022-08-19T02:34:25.925Z,43.30
2022-08-19T02:36:53.881Z,43.30
2022-08-19T02:39:20.844Z,43.30
2022-08-19T02:41:50.451Z,43.30
2022-08-19T02:44:29.715Z,43.40
2022-08-19T02:47:00.223Z,43.40
2022-08-19T02:49:28.272Z,43.30
2022-08-19T02:51:56.319Z,43.40
2022-08-19T02:54:24.294Z,43.50
2022-08-19T02:56:52.493Z,43.40
2022-08-19T02:59:22.935Z,43.50
2022-08-19T03:02:08.660Z,43.40
2022-08-19T03:04:38.186Z,43.50
2022-08-19T03:07:10.936Z,43.60
2022-08-19T03:09:39.446Z,43.50
2022-08-19T03:12:07.948Z,43.60
2022-08-19T03:14:36.401Z,43.60
2022-08-19T03:17:05.507Z,43.50
2022-08-19T03:19:33.710Z,43.50
2022-08-19T03:22:03.654Z,43.60
2022-08-19T03:24:31.800Z,43.50
2022-08-19T03:27:00.105Z,43.60
2022-08-19T03:29:45.963Z,43.40
2022-08-19T03:32:31.730Z,43.40
2022-08-19T03:35:01.350Z,43.40
2022-08-19T03:37:30.900Z,43.60
2022-08-19T03:39:58.985Z,43.50
2022-08-19T03:42:38.765Z,43.50
2022-08-19T03:45:16.044Z,43.60
2022-08-19T03:47:47.547Z,43.60
2022-08-19T03:50:15.602Z,43.60
2022-08-19T03:52:45.474Z,43.50
2022-08-19T03:55:15.131Z,43.60
2022-08-19T03:57:43.245Z,43.60
2022-08-19T04:00:13.466Z,43.50
2022-08-19T04:02:42.906Z,43.60
2022-08-19T04:05:27.761Z,43.50
2022-08-19T04:07:59.997Z,43.60
2022-08-19T04:14:42.620Z,43.60
2022-08-19T04:17:10.671Z,43.60
2022-08-19T04:19:51.012Z,43.70
2022-08-19T04:22:19.661Z,43.50
2022-08-19T04:24:49.256Z,43.70
2022-08-19T04:27:17.567Z,43.60
2022-08-19T04:29:45.655Z,43.80
2022-08-19T04:32:16.215Z,43.60
2022-08-19T04:35:02.790Z,43.70
2022-08-19T04:37:35.573Z,43.50
2022-08-19T04:40:25.525Z,43.50
2022-08-19T04:42:54.507Z,43.60
2022-08-19T04:45:23.310Z,43.80
2022-08-19T04:47:58.483Z,43.60
2022-08-19T04:50:27.258Z,43.70
2022-08-19T04:52:57.599Z,43.80
2022-08-19T04:55:27.592Z,43.70
2022-08-19T04:57:55.637Z,43.60
2022-08-19T05:00:23.862Z,43.60
2022-08-19T05:02:51.866Z,43.70
2022-08-19T05:05:20.860Z,44.20
2022-08-19T05:07:48.977Z,43.50
2022-08-19T05:10:17.069Z,43.60
2022-08-19T05:12:46.593Z,43.50
2022-08-19T05:15:14.866Z,43.60
2022-08-19T05:18:03.284Z,43.60
2022-08-19T05:20:48.989Z,43.50
2022-08-19T05:23:20.499Z,43.50
2022-08-19T05:25:51.302Z,43.40
2022-08-19T05:28:20.745Z,43.50
2022-08-19T05:30:49.170Z,43.40
2022-08-19T05:33:17.238Z,43.60
2022-08-19T05:35:45.422Z,43.50
2022-08-19T05:38:13.690Z,43.30
2022-08-19T05:40:41.952Z,43.40
2022-08-19T05:43:10.109Z,43.40
2022-08-19T05:45:42.981Z,43.40
2022-08-19T05:48:12.072Z,43.30
2022-08-19T05:50:40.345Z,43.40
2022-08-19T05:53:09.799Z,43.50
2022-08-19T05:55:41.035Z,43.30
2022-08-19T05:58:09.337Z,43.30
2022-08-19T06:00:37.603Z,43.30
2022-08-19T06:03:12.734Z,43.40
2022-08-19T06:05:51.695Z,43.20
2022-08-19T06:08:33.744Z,43.30
2022-08-19T06:11:14.484Z,43.20
2022-08-19T06:13:42.515Z,43.00
2022-08-19T06:16:10.658Z,43.20
2022-08-19T06:18:40.058Z,43.00
2022-08-19T06:21:08.105Z,43.00
2022-08-19T06:23:36.714Z,42.90
2022-08-19T06:26:05.251Z,42.90
2022-08-19T06:28:33.955Z,42.90
2022-08-19T06:31:08.313Z,42.70
2022-08-19T06:33:36.493Z,42.50
2022-08-19T06:36:06.384Z,42.40
2022-08-19T06:38:35.386Z,42.10
2022-08-19T06:41:07.528Z,42.20
2022-08-19T06:43:38.100Z,41.80
2022-08-19T06:46:13.267Z,42.00
2022-08-19T06:48:45.702Z,41.40
2022-08-19T06:51:19.184Z,41.30
2022-08-19T06:53:48.110Z,41.00
2022-08-19T06:56:17.104Z,40.80
2022-08-19T06:58:45.073Z,40.80
2022-08-19T07:01:12.960Z,40.70
2022-08-19T07:03:41.309Z,40.80
2022-08-19T07:06:21.267Z,40.60
2022-08-19T07:09:00.168Z,40.60
2022-08-19T07:11:28.828Z,40.40
2022-08-19T07:13:59.283Z,40.60
2022-08-19T07:16:29.389Z,40.40
2022-08-19T07:18:57.627Z,40.60
2022-08-19T07:21:27.690Z,40.80
2022-08-19T07:24:00.161Z,40.60
2022-08-19T07:26:32.086Z,40.50
2022-08-19T07:29:01.217Z,40.50
2022-08-19T07:31:31.136Z,40.60
2022-08-19T07:33:59.184Z,40.40
2022-08-19T07:36:31.737Z,40.20
2022-08-19T07:39:02.600Z,40.30
2022-08-19T07:41:32.393Z,40.30
2022-08-19T07:44:03.048Z,40.20
2022-08-19T07:46:31.389Z,40.20
2022-08-19T07:48:59.570Z,40.10
2022-08-19T07:51:36.025Z,40.00
2022-08-19T07:54:05.835Z,39.90
2022-08-19T07:56:33.877Z,39.90
2022-08-19T07:59:01.910Z,39.90
2022-08-19T08:01:30.075Z,40.00
2022-08-19T08:04:12.522Z,40.00
2022-08-19T08:06:58.138Z,40.00
2022-08-19T08:09:28.951Z,40.30
2022-08-19T08:12:01.915Z,40.20
2022-08-19T08:14:34.998Z,40.20
2022-08-19T08:17:03.717Z,40.20
2022-08-19T08:19:39.908Z,40.30
2022-08-19T08:22:08.117Z,40.40
2022-08-19T08:24:39.416Z,40.50
2022-08-19T08:27:11.410Z,40.30
2022-08-19T08:29:41.263Z,40.20
2022-08-19T08:32:13.885Z,40.40
2022-08-19T08:34:42.341Z,40.10
2022-08-19T08:37:10.305Z,39.80
2022-08-19T08:39:39.866Z,39.60
2022-08-19T08:42:10.346Z,39.70
2022-08-19T08:44:51.209Z,40.10
2022-08-19T08:47:21.293Z,40.40
2022-08-19T08:49:52.064Z,40.70
2022-08-19T08:52:24.838Z,40.80
2022-08-19T08:55:10.173Z,40.60
2022-08-19T08:57:42.588Z,40.40
2022-08-19T09:00:15.434Z,40.30
2022-08-19T09:02:50.772Z,40.20
2022-08-19T09:05:22.609Z,40.10
2022-08-19T09:07:58.921Z,40.20
2022-08-19T09:10:31.561Z,40.20
2022-08-19T09:13:12.771Z,40.20
2022-08-19T09:15:44.067Z,39.80
2022-08-19T09:18:15.391Z,39.80
2022-08-19T09:20:48.599Z,40.10
2022-08-19T09:23:16.613Z,39.80
2022-08-19T09:25:56.966Z,39.80
2022-08-19T09:28:33.337Z,39.90
2022-08-19T09:31:01.641Z,39.90
2022-08-19T09:33:30.121Z,39.70
2022-08-19T09:36:08.406Z,39.50
2022-08-19T09:38:37.024Z,39.40
2022-08-19T09:41:14.752Z,39.10
2022-08-19T09:43:44.276Z,39.00
2022-08-19T09:46:18.014Z,38.80
2022-08-19T09:48:46.851Z,38.70
2022-08-19T09:51:16.679Z,38.70
2022-08-19T09:53:45.106Z,38.60
2022-08-19T09:56:14.938Z,38.50
2022-08-19T09:58:43.037Z,38.30
2022-08-19T10:01:11.307Z,38.30
2022-08-19T10:03:39.484Z,38.20
2022-08-19T10:06:15.054Z,38.10
2022-08-19T10:08:50.033Z,38.00
2022-08-19T10:11:28.320Z,37.90
2022-08-19T10:14:06.542Z,37.80
2022-08-19T10:16:39.435Z,37.80
2022-08-19T10:19:07.818Z,37.60
2022-08-19T10:21:38.271Z,37.30
2022-08-19T10:24:09.383Z,37.20
2022-08-19T10:26:40.331Z,37.10
2022-08-19T10:29:11.309Z,37.00
2022-08-19T10:32:00.115Z,36.70
2022-08-19T10:34:30.006Z,36.40
2022-08-19T10:37:00.842Z,36.20
2022-08-19T10:39:31.370Z,36.10
2022-08-19T10:42:01.997Z,35.70
2022-08-19T10:44:32.609Z,35.40
2022-08-19T10:47:01.017Z,35.30
2022-08-19T10:49:28.876Z,35.00
2022-08-19T10:52:20.205Z,34.80
2022-08-19T10:55:08.522Z,34.60
2022-08-19T10:58:03.308Z,35.00
2022-08-19T11:00:27.058Z,34.10
2022-08-19T11:02:55.047Z,33.70
2022-08-19T11:05:24.182Z,33.60
2022-08-19T11:07:53.367Z,33.60
2022-08-19T11:10:22.489Z,33.60
2022-08-19T11:12:55.725Z,33.30
2022-08-19T11:15:24.329Z,33.00
2022-08-19T11:17:55.243Z,32.80
2022-08-19T11:20:24.663Z,32.50
2022-08-19T11:22:53.776Z,31.90
2022-08-19T11:25:25.538Z,30.90
2022-08-19T11:27:55.266Z,29.70
2022-08-19T11:30:23.544Z,28.90
2022-08-19T11:32:51.603Z,28.20
2022-08-19T11:35:21.149Z,27.60
2022-08-19T11:37:49.172Z,26.90
2022-08-19T11:40:17.391Z,26.40
2022-08-19T11:42:57.753Z,25.90
2022-08-19T11:45:27.560Z,25.50
2022-08-19T11:47:55.965Z,25.30
2022-08-19T11:50:24.556Z,24.80
2022-08-19T11:52:52.701Z,24.90
2022-08-19T11:55:20.932Z,25.60
2022-08-19T11:57:48.952Z,25.00
2022-08-19T12:00:17.325Z,24.40
2022-08-19T12:02:46.706Z,24.50
2022-08-19T12:05:18.835Z,24.30
2022-08-19T12:07:47.251Z,23.80
2022-08-19T12:10:16.051Z,23.80
2022-08-19T12:12:47.486Z,23.60
2022-08-19T12:15:28.253Z,23.10
2022-08-19T12:18:03.199Z,22.70
2022-08-19T12:20:31.345Z,22.20
2022-08-19T12:23:01.394Z,21.90
2022-08-19T12:25:29.309Z,21.50
2022-08-19T12:27:57.833Z,21.70
2022-08-19T12:30:25.923Z,21.00
2022-08-19T12:32:53.970Z,21.00
2022-08-19T12:35:23.351Z,20.90
2022-08-19T12:37:56.742Z,20.90
2022-08-19T12:40:26.543Z,20.90
2022-08-19T12:42:54.785Z,20.60
2022-08-19T12:45:23.463Z,20.70
2022-08-19T12:47:55.273Z,20.40
2022-08-19T12:50:24.715Z,20.40
2022-08-19T12:52:52.715Z,20.30
2022-08-19T12:55:20.740Z,20.10
2022-08-19T12:57:49.643Z,20.10
2022-08-19T13:00:19.323Z,20.20
2022-08-19T13:02:47.929Z,20.30
2022-08-19T13:05:17.615Z,20.50
2022-08-19T13:07:46.887Z,20.50
2022-08-19T13:10:16.390Z,20.70
2022-08-19T13:12:44.410Z,20.70
2022-08-19T13:15:13.014Z,20.80
2022-08-19T13:17:44.626Z,20.70
2022-08-19T13:20:13.029Z,20.50
2022-08-19T13:22:40.949Z,20.60
2022-08-19T13:25:12.929Z,21.00
2022-08-19T13:27:41.153Z,21.30
2022-08-19T13:30:27.856Z,22.00
2022-08-19T13:33:16.099Z,22.40
2022-08-19T13:35:46.314Z,22.90
2022-08-19T13:38:14.425Z,22.90
2022-08-19T13:40:44.013Z,23.80
2022-08-19T13:43:17.786Z,23.90
2022-08-19T13:45:51.679Z,23.60
2022-08-19T13:48:19.817Z,23.50
2022-08-19T13:50:49.173Z,23.50
2022-08-19T13:53:17.568Z,23.60
2022-08-19T13:55:47.568Z,23.30
2022-08-19T13:58:15.658Z,23.00
2022-08-19T14:00:45.001Z,22.80
2022-08-19T14:03:12.944Z,23.00
2022-08-19T14:05:40.809Z,23.80
2022-08-19T14:08:08.783Z,24.30
2022-08-19T14:10:36.776Z,24.60
2022-08-19T14:13:06.309Z,24.60
2022-08-19T14:15:34.320Z,24.80
2022-08-19T14:18:02.313Z,24.80
2022-08-19T14:20:30.229Z,24.80
2022-08-19T14:22:58.119Z,24.90
2022-08-19T14:25:27.048Z,25.00
2022-08-19T14:27:55.110Z,25.10
2022-08-19T14:30:26.539Z,25.20
2022-08-19T14:32:55.059Z,25.30
2022-08-19T14:35:26.938Z,25.40
2022-08-19T14:37:54.976Z,25.60
2022-08-19T14:40:26.617Z,25.70
2022-08-19T14:42:56.711Z,25.60
2022-08-19T14:45:26.112Z,25.80
2022-08-19T14:47:54.110Z,26.00
2022-08-19T14:50:22.228Z,26.10
2022-08-19T14:52:50.346Z,26.10
2022-08-19T14:55:18.697Z,26.20
2022-08-19T14:57:46.833Z,26.30
2022-08-19T15:00:18.598Z,26.60
2022-08-19T15:02:48.045Z,26.60
2022-08-19T15:05:16.324Z,26.70
2022-08-19T15:07:44.317Z,26.80
2022-08-19T15:10:12.967Z,26.90
2022-08-19T15:12:41.257Z,26.90
2022-08-19T15:15:10.211Z,27.00
2022-08-19T15:17:45.450Z,27.10
2022-08-19T15:20:23.898Z,27.10
2022-08-19T15:22:52.217Z,27.30
2022-08-19T15:25:21.282Z,27.40
2022-08-19T15:27:49.301Z,27.60
2022-08-19T15:30:23.109Z,27.80
2022-08-19T15:32:51.093Z,27.90
2022-08-19T15:35:20.639Z,28.10
2022-08-19T15:37:53.449Z,28.20
2022-08-19T15:40:21.741Z,28.20
2022-08-19T15:42:50.035Z,28.30
2022-08-19T15:45:18.905Z,28.00
2022-08-19T15:47:46.908Z,28.30
2022-08-19T15:50:16.141Z,28.40
2022-08-19T15:52:50.063Z,28.30
2022-08-19T15:55:19.993Z,28.40
2022-08-19T15:58:27.687Z,28.40
2022-08-19T16:01:16.347Z,29.20
2022-08-19T16:04:03.157Z,28.80
2022-08-19T16:06:31.911Z,28.90
2022-08-19T16:09:01.997Z,29.20
2022-08-19T16:11:32.563Z,29.30
2022-08-19T16:14:00.732Z,29.60
2022-08-19T16:16:33.790Z,29.70
2022-08-19T16:19:05.132Z,29.90
2022-08-19T16:21:33.454Z,29.90
2022-08-19T16:24:02.157Z,30.00
2022-08-19T16:26:31.678Z,30.10
2022-08-19T16:28:59.820Z,30.20
2022-08-19T16:31:27.892Z,30.30
2022-08-19T16:33:56.025Z,30.40
2022-08-19T16:36:24.741Z,30.50
2022-08-19T16:38:53.735Z,30.70
2022-08-19T16:41:21.691Z,30.70
2022-08-19T16:43:54.367Z,31.00
2022-08-19T16:46:22.788Z,31.10
2022-08-19T16:48:50.863Z,31.10
2022-08-19T16:51:18.917Z,31.20
2022-08-19T16:53:46.931Z,31.30
2022-08-19T16:56:15.395Z,31.50
2022-08-19T16:58:43.501Z,31.60
2022-08-19T17:01:13.815Z,31.80
2022-08-19T17:03:41.861Z,31.80
2022-08-19T17:06:15.915Z,31.90
2022-08-19T17:08:49.175Z,32.10
2022-08-19T17:11:18.950Z,32.20
2022-08-19T17:13:48.348Z,32.20
2022-08-19T17:16:18.082Z,32.40
2022-08-19T17:18:46.079Z,32.40
2022-08-19T17:21:14.345Z,32.60
2022-08-19T17:23:44.039Z,32.60
2022-08-19T17:26:18.082Z,32.70
2022-08-19T17:28:47.254Z,32.80
2022-08-19T17:31:15.256Z,32.90
2022-08-19T17:33:48.126Z,33.00
2022-08-19T17:36:17.300Z,33.00
2022-08-19T17:38:45.261Z,33.00
2022-08-19T17:41:13.229Z,33.20
2022-08-19T17:43:43.889Z,33.20
2022-08-19T17:46:17.837Z,33.20
2022-08-19T17:48:52.245Z,33.30
2022-08-19T17:51:22.336Z,33.30
2022-08-19T17:53:53.788Z,33.40
2022-08-19T17:56:21.965Z,33.60
2022-08-19T17:58:57.698Z,33.60
2022-08-19T18:01:51.849Z,33.60
2022-08-19T18:04:19.949Z,33.70
2022-08-19T18:06:53.202Z,33.80
2022-08-19T18:09:24.492Z,33.70
2022-08-19T18:11:53.989Z,33.80
2022-08-19T18:14:23.101Z,33.70
2022-08-19T18:16:51.303Z,33.90
2022-08-19T18:19:21.282Z,33.90
2022-08-19T18:21:49.283Z,33.90
2022-08-19T18:24:17.340Z,34.00
2022-08-19T18:26:47.049Z,34.00
2022-08-19T18:29:15.055Z,34.10
2022-08-19T18:31:43.748Z,34.20
2022-08-19T18:34:11.785Z,34.10
2022-08-19T18:36:53.358Z,34.20
2022-08-19T18:39:39.204Z,34.20
2022-08-19T18:42:32.676Z,34.30
2022-08-19T18:45:18.004Z,34.40
2022-08-19T18:48:03.417Z,34.50
2022-08-19T18:50:31.488Z,34.50
2022-08-19T18:53:01.843Z,34.50
2022-08-19T18:55:29.845Z,34.60
2022-08-19T18:57:58.114Z,34.60
2022-08-19T19:00:26.400Z,34.70
2022-08-19T19:02:54.662Z,34.70
2022-08-19T19:05:23.166Z,34.80
2022-08-19T19:07:53.239Z,34.80
2022-08-19T19:10:22.686Z,34.90
2022-08-19T19:12:50.815Z,35.00
2022-08-19T19:15:18.917Z,35.10
2022-08-19T19:17:46.976Z,35.10
2022-08-19T19:20:15.066Z,35.20
2022-08-19T19:22:43.224Z,35.30
2022-08-19T19:25:11.845Z,35.40
2022-08-19T19:27:41.383Z,35.50
2022-08-19T19:30:10.131Z,35.50
2022-08-19T19:32:39.118Z,35.60
2022-08-19T19:35:07.971Z,35.70
2022-08-19T19:37:37.272Z,35.70
2022-08-19T19:40:05.968Z,35.80
2022-08-19T19:42:33.964Z,35.80
2022-08-19T19:45:03.505Z,36.00
2022-08-19T19:47:31.277Z,36.00
2022-08-19T19:50:15.890Z,36.10
2022-08-19T19:52:45.509Z,36.10
2022-08-19T19:55:18.098Z,36.20
2022-08-19T19:57:46.530Z,36.30
2022-08-19T20:00:18.656Z,36.30
2022-08-19T20:02:50.085Z,36.40
2022-08-19T20:05:21.009Z,36.40
2022-08-19T20:08:06.806Z,36.50
2022-08-19T20:10:34.903Z,36.60
2022-08-19T20:13:03.539Z,36.70
2022-08-19T20:15:33.071Z,36.70
2022-08-19T20:18:02.398Z,36.80
2022-08-19T20:20:31.545Z,36.80
2022-08-19T20:22:59.612Z,36.90
2022-08-19T20:25:27.854Z,36.90
2022-08-19T20:27:55.971Z,37.00
2022-08-19T20:30:24.938Z,37.00
2022-08-19T20:32:56.528Z,37.10
2022-08-19T20:35:24.949Z,37.10
2022-08-19T20:37:58.079Z,37.10
2022-08-19T20:40:26.521Z,37.20
2022-08-19T20:42:54.603Z,37.30
2022-08-19T20:45:32.762Z,37.40
2022-08-19T20:48:03.605Z,37.30
2022-08-19T20:50:31.962Z,38.00
2022-08-19T20:52:59.880Z,37.40
2022-08-19T20:55:28.373Z,37.50
2022-08-19T20:57:59.538Z,37.50
2022-08-19T21:00:29.341Z,37.50
2022-08-19T21:02:57.328Z,37.60
2022-08-19T21:05:30.411Z,37.60
2022-08-19T21:07:58.841Z,37.70
2022-08-19T21:10:27.559Z,37.60
2022-08-19T21:12:55.936Z,37.80
2022-08-19T21:15:24.626Z,37.70
2022-08-19T21:17:52.670Z,37.80
2022-08-19T21:20:20.699Z,37.90
2022-08-19T21:22:50.290Z,37.90
2022-08-19T21:25:18.383Z,38.00
2022-08-19T21:27:46.489Z,37.90
2022-08-19T21:30:15.103Z,38.00
2022-08-19T21:32:43.186Z,38.00
2022-08-19T21:35:11.278Z,38.00
2022-08-19T21:37:39.424Z,38.10
2022-08-19T21:40:10.533Z,38.20
2022-08-19T21:42:39.742Z,38.10
2022-08-19T21:45:08.384Z,38.20
2022-08-19T21:47:37.584Z,38.20
2022-08-19T21:50:05.924Z,38.20
2022-08-19T21:52:34.133Z,38.30
2022-08-19T21:55:02.299Z,38.20
2022-08-19T21:57:31.881Z,38.20
2022-08-19T21:59:59.850Z,38.20
2022-08-19T22:02:28.260Z,38.20
2022-08-19T22:04:56.130Z,38.20
2022-08-19T22:07:23.935Z,38.30
2022-08-19T22:09:51.867Z,38.20
2022-08-19T22:12:23.991Z,38.30
2022-08-19T22:14:53.699Z,38.30
2022-08-19T22:17:22.411Z,38.30
2022-08-19T22:19:50.949Z,38.30
2022-08-19T22:22:21.514Z,38.30
2022-08-19T22:24:49.577Z,38.40
2022-08-19T22:27:17.572Z,38.30
2022-08-19T22:29:45.561Z,38.40
2022-08-19T22:32:26.605Z,38.30
2022-08-19T22:34:57.936Z,38.30
2022-08-19T22:37:25.931Z,38.40
2022-08-19T22:39:53.923Z,38.40
2022-08-19T22:42:24.818Z,38.50
2022-08-19T22:44:58.726Z,38.50
2022-08-19T22:47:29.470Z,38.40
2022-08-19T22:50:00.216Z,38.60
2022-08-19T22:52:28.072Z,38.60
2022-08-19T22:54:57.073Z,38.60
2022-08-19T22:57:25.148Z,38.70
2022-08-19T22:59:53.529Z,38.90
2022-08-19T23:02:23.573Z,39.00
2022-08-19T23:04:52.992Z,39.20
2022-08-19T23:07:23.583Z,39.10
2022-08-19T23:09:52.136Z,39.20
2022-08-19T23:12:27.605Z,39.40
2022-08-19T23:14:55.623Z,39.40
2022-08-19T23:17:23.656Z,39.40
2022-08-19T23:19:53.758Z,39.50
2022-08-19T23:22:25.013Z,39.60
2022-08-19T23:24:56.051Z,39.60
2022-08-19T23:27:42.061Z,39.80
2022-08-19T23:30:29.369Z,39.80
2022-08-19T23:32:57.857Z,39.90
2022-08-19T23:35:28.664Z,40.10
2022-08-19T23:37:57.539Z,40.00
2022-08-19T23:40:25.628Z,40.10
2022-08-19T23:42:54.843Z,40.10
2022-08-19T23:45:24.662Z,40.20
2022-08-19T23:47:53.313Z,40.30
2022-08-19T23:50:22.039Z,40.30
2022-08-19T23:52:52.455Z,40.40
2022-08-19T23:55:21.384Z,40.40
2022-08-19T23:57:49.506Z,40.60
